Time;durP1;ratioP1;P1;durP2;ratioP2;P2;SDS_P1;SDS_P2;PMS_P1;PMS_P2;Temp;Humidity;BMP_temperature;BMP_pressure;BME280_temperature;BME280_humidity;BME280_pressure;Samples;Min_cycle;Max_cycle;Signal;HPM_P1;HPM_P2
2021/07/10 00:00:35;;;;;;;10.48;7.35;;;;;;;;;;5048289;28;20206;-56
2021/07/10 00:03:01;;;;;;;12.30;8.27;;;;;;;;;;5048459;28;20193;-56
2021/07/10 00:05:26;;;;;;;12.93;7.43;;;;;;;;;;5045959;28;20201;-58
2021/07/10 00:07:52;;;;;;;13.77;8.18;;;;;;;;;;5057287;28;20200;-57
2021/07/10 00:10:18;;;;;;;10.85;8.30;;;;;;;;;;5039205;28;20255;-58
2021/07/10 00:12:45;;;;;;;11.60;8.10;;;;;;;;;;5046529;28;20228;-58
2021/07/10 00:15:12;;;;;;;13.18;7.55;;;;;;;;;;5029216;28;20194;-57
2021/07/10 00:17:38;;;;;;;13.35;7.43;;;;;;;;;;5048728;28;20228;-57
2021/07/10 00:20:05;;;;;;;12.82;7.25;;;;;;;;;;5044835;28;20245;-56
2021/07/10 00:22:31;;;;;;;13.20;7.22;;;;;;;;;;5045533;28;20189;-56
2021/07/10 00:24:56;;;;;;;16.17;7.82;;;;;;;;;;5044019;28;20677;-59
2021/07/10 00:27:22;;;;;;;14.05;8.00;;;;;;;;;;5047538;28;20759;-57
2021/07/10 00:29:47;;;;;;;16.30;7.57;;;;;;;;;;5046226;28;20217;-58
2021/07/10 00:32:12;;;;;;;12.48;6.07;;;;;;;;;;5046019;28;20729;-56
2021/07/10 00:34:38;;;;;;;22.77;7.07;;;;;;;;;;5047799;28;20201;-56
2021/07/10 00:37:03;;;;;;;14.15;6.15;;;;;;;;;;5049138;28;20801;-56
2021/07/10 00:39:28;;;;;;;27.13;6.47;;;;;;;;;;5044652;28;20765;-59
2021/07/10 00:41:54;;;;;;;18.02;7.15;;;;;;;;;;5045504;28;20198;-56
2021/07/10 00:44:19;;;;;;;19.60;7.20;;;;;;;;;;5048026;28;20185;-57
2021/07/10 00:46:44;;;;;;;14.93;6.68;;;;;;;;;;5046768;28;20193;-57
2021/07/10 00:49:10;;;;;;;13.80;7.30;;;;;;;;;;5029580;28;20563;-56
2021/07/10 00:51:35;;;;;;;13.65;7.40;;;;;;;;;;5046583;28;20600;-57
2021/07/10 00:54:00;;;;;;;19.73;8.50;;;;;;;;;;5047114;28;20205;-57
2021/07/10 00:56:26;;;;;;;13.38;8.75;;;;;;;;;;5046934;28;20292;-57
2021/07/10 00:58:53;;;;;;;12.65;9.15;;;;;;;;;;5044121;28;20199;-57
2021/07/10 01:01:19;;;;;;;9.93;7.82;;;;;;;;;;5047185;28;20619;-56
2021/07/10 01:03:45;;;;;;;16.33;9.38;;;;;;;;;;5047323;28;20189;-57
2021/07/10 01:06:12;;;;;;;16.20;8.90;;;;;;;;;;5045656;28;20202;-56
2021/07/10 01:08:37;;;;;;;18.67;7.38;;;;;;;;;;5045890;28;20189;-56
2021/07/10 01:11:03;;;;;;;20.05;7.57;;;;;;;;;;5041160;28;20228;-57
2021/07/10 01:13:29;;;;;;;10.18;7.63;;;;;;;;;;5029607;28;20224;-56
2021/07/10 01:15:54;;;;;;;16.25;7.85;;;;;;;;;;5026472;28;20259;-56
2021/07/10 01:18:20;;;;;;;16.88;8.00;;;;;;;;;;5046377;28;20549;-58
2021/07/10 01:20:50;;;;;;;15.43;7.65;;;;;;;;;;5037072;28;20213;-56
2021/07/10 01:23:16;;;;;;;18.67;7.15;;;;;;;;;;5042519;28;20226;-56
2021/07/10 01:25:43;;;;;;;23.17;6.60;;;;;;;;;;5040040;28;20228;-56
2021/07/10 01:28:08;;;;;;;16.63;9.35;;;;;;;;;;5048203;28;20190;-56
2021/07/10 01:30:36;;;;;;;16.10;8.65;;;;;;;;;;5037997;28;20226;-57
2021/07/10 01:33:02;;;;;;;14.82;5.15;;;;;;;;;;5046003;28;20193;-56
2021/07/10 01:35:28;;;;;;;16.35;5.75;;;;;;;;;;5042506;28;20642;-56
2021/07/10 01:37:53;;;;;;;15.15;7.88;;;;;;;;;;5030533;28;20309;-56
2021/07/10 01:40:21;;;;;;;22.92;8.43;;;;;;;;;;5046845;28;20314;-57
2021/07/10 01:42:47;;;;;;;11.43;6.17;;;;;;;;;;5044348;28;20205;-57
2021/07/10 01:45:13;;;;;;;24.63;7.33;;;;;;;;;;5046458;28;20243;-56
2021/07/10 01:47:40;;;;;;;13.87;6.57;;;;;;;;;;5037803;28;20190;-57
2021/07/10 01:50:07;;;;;;;26.23;10.33;;;;;;;;;;5058941;28;20704;-58
2021/07/10 01:52:33;;;;;;;18.23;12.17;;;;;;;;;;5044362;28;20197;-56
2021/07/10 01:54:58;;;;;;;22.73;13.07;;;;;;;;;;5046474;28;20186;-56
2021/07/10 01:57:23;;;;;;;22.57;11.80;;;;;;;;;;5047458;28;20193;-57
2021/07/10 01:59:48;;;;;;;13.90;10.67;;;;;;;;;;5032023;28;20586;-56
2021/07/10 02:02:14;;;;;;;19.23;11.70;;;;;;;;;;5049254;28;20190;-57
2021/07/10 02:04:47;;;;;;;21.20;12.07;;;;;;;;;;5048693;28;20202;-56
2021/07/10 02:07:14;;;;;;;21.88;12.23;;;;;;;;;;5053836;28;20185;-56
2021/07/10 02:09:39;;;;;;;22.30;13.60;;;;;;;;;;5049358;28;20242;-56
2021/07/10 02:12:05;;;;;;;26.70;13.63;;;;;;;;;;5049790;28;20856;-57
2021/07/10 02:14:30;;;;;;;27.95;15.77;;;;;;;;;;5045186;28;20273;-55
2021/07/10 02:16:56;;;;;;;24.13;15.40;;;;;;;;;;5041600;28;20190;-57
2021/07/10 02:19:21;;;;;;;25.65;15.52;;;;;;;;;;5043166;28;20245;-56
2021/07/10 02:21:46;;;;;;;20.73;14.23;;;;;;;;;;5049265;28;20190;-57
2021/07/10 02:24:12;;;;;;;22.20;14.73;;;;;;;;;;5051277;28;20682;-57
2021/07/10 02:26:37;;;;;;;23.92;13.23;;;;;;;;;;5032134;28;20537;-56
2021/07/10 02:29:05;;;;;;;29.73;14.38;;;;;;;;;;5033490;28;20201;-57
2021/07/10 02:31:31;;;;;;;28.13;13.02;;;;;;;;;;5048890;28;20765;-56
2021/07/10 02:33:56;;;;;;;22.58;12.98;;;;;;;;;;5049672;28;20198;-56
2021/07/10 02:36:21;;;;;;;27.60;14.73;;;;;;;;;;5047094;28;20206;-56
2021/07/10 02:38:47;;;;;;;32.20;15.35;;;;;;;;;;5032425;28;20198;-56
2021/07/10 02:41:13;;;;;;;33.88;16.13;;;;;;;;;;5047631;28;20213;-58
2021/07/10 02:43:38;;;;;;;36.28;15.30;;;;;;;;;;5048864;28;20197;-58
2021/07/10 02:46:05;;;;;;;31.65;16.60;;;;;;;;;;5048883;28;20608;-54
2021/07/10 02:48:30;;;;;;;36.60;15.70;;;;;;;;;;5047883;28;20247;-58
2021/07/10 02:50:56;;;;;;;29.92;17.10;;;;;;;;;;5047717;28;20226;-58
2021/07/10 02:53:21;;;;;;;35.28;16.02;;;;;;;;;;5030499;28;20677;-56
2021/07/10 02:55:47;;;;;;;37.55;16.35;;;;;;;;;;5030939;28;20225;-56
2021/07/10 02:58:13;;;;;;;30.92;16.55;;;;;;;;;;5051715;28;20625;-59
2021/07/10 03:00:38;;;;;;;30.13;16.33;;;;;;;;;;5042216;28;20199;-58
2021/07/10 03:03:04;;;;;;;33.65;16.73;;;;;;;;;;5033928;28;20243;-56
2021/07/10 03:05:31;;;;;;;37.20;16.45;;;;;;;;;;5048532;28;20269;-57
2021/07/10 03:07:56;;;;;;;28.35;16.80;;;;;;;;;;5042970;28;20203;-57
2021/07/10 03:10:27;;;;;;;31.40;15.82;;;;;;;;;;5050181;28;20217;-57
2021/07/10 03:12:54;;;;;;;35.40;16.58;;;;;;;;;;5046923;28;20221;-56
2021/07/10 03:15:20;;;;;;;41.78;17.25;;;;;;;;;;5054755;28;20193;-57
2021/07/10 03:17:46;;;;;;;34.08;17.48;;;;;;;;;;5049032;28;20661;-57
2021/07/10 03:20:13;;;;;;;41.25;17.63;;;;;;;;;;5041567;28;20305;-56
2021/07/10 03:22:38;;;;;;;39.05;17.20;;;;;;;;;;5050140;28;20287;-56
2021/07/10 03:25:06;;;;;;;29.83;17.88;;;;;;;;;;5049130;28;20359;-56
2021/07/10 03:27:31;;;;;;;31.40;16.77;;;;;;;;;;5053247;28;20197;-56
2021/07/10 03:29:57;;;;;;;28.50;17.35;;;;;;;;;;5045078;28;20223;-56
2021/07/10 03:32:22;;;;;;;34.33;17.58;;;;;;;;;;5034235;28;20296;-57
2021/07/10 03:34:47;;;;;;;27.00;17.00;;;;;;;;;;5047997;28;20190;-56
2021/07/10 03:37:13;;;;;;;31.02;16.85;;;;;;;;;;5042056;28;20195;-57
2021/07/10 03:39:38;;;;;;;27.23;17.40;;;;;;;;;;5037385;28;20255;-57
2021/07/10 03:42:04;;;;;;;30.20;16.50;;;;;;;;;;5038565;28;20194;-57
2021/07/10 03:44:29;;;;;;;30.67;17.52;;;;;;;;;;5047708;28;20190;-56
2021/07/10 03:46:54;;;;;;;32.83;15.82;;;;;;;;;;5048454;28;20620;-57
2021/07/10 03:49:19;;;;;;;28.23;15.98;;;;;;;;;;5038922;28;20206;-56
2021/07/10 03:51:45;;;;;;;27.17;17.05;;;;;;;;;;5014246;28;20211;-56
2021/07/10 03:54:10;;;;;;;32.42;17.65;;;;;;;;;;5043395;28;20559;-55
2021/07/10 03:56:36;;;;;;;28.17;16.52;;;;;;;;;;5046715;28;20545;-57
2021/07/10 03:59:01;;;;;;;34.72;17.63;;;;;;;;;;5043296;28;20851;-56
2021/07/10 04:01:26;;;;;;;31.88;17.50;;;;;;;;;;5034655;28;20174;-56
2021/07/10 04:03:52;;;;;;;25.95;16.92;;;;;;;;;;5054562;28;20281;-56
2021/07/10 04:06:17;;;;;;;33.20;16.70;;;;;;;;;;5043992;28;20196;-56
2021/07/10 04:08:42;;;;;;;42.72;18.35;;;;;;;;;;5039681;28;20192;-56
2021/07/10 04:11:10;;;;;;;29.38;17.98;;;;;;;;;;5046530;28;20647;-56
2021/07/10 04:13:35;;;;;;;28.30;16.88;;;;;;;;;;5030428;28;20658;-58
2021/07/10 04:16:01;;;;;;;36.17;17.38;;;;;;;;;;5039528;28;20194;-56
2021/07/10 04:18:27;;;;;;;29.00;17.58;;;;;;;;;;5029343;28;20243;-57
2021/07/10 04:20:52;;;;;;;31.85;17.45;;;;;;;;;;5044927;28;20218;-56
2021/07/10 04:23:18;;;;;;;29.65;16.65;;;;;;;;;;5037929;28;20189;-56
2021/07/10 04:25:43;;;;;;;31.13;16.92;;;;;;;;;;5045867;28;20210;-55
2021/07/10 04:28:08;;;;;;;25.60;15.85;;;;;;;;;;5047708;28;20197;-56
2021/07/10 04:30:34;;;;;;;25.73;15.77;;;;;;;;;;5052388;28;20216;-56
2021/07/10 04:32:59;;;;;;;25.55;16.13;;;;;;;;;;5042025;28;20196;-56
2021/07/10 04:35:24;;;;;;;22.20;16.15;;;;;;;;;;5043939;28;20187;-56
2021/07/10 04:37:50;;;;;;;26.50;15.88;;;;;;;;;;5045379;28;20209;-58
2021/07/10 04:40:15;;;;;;;21.30;14.18;;;;;;;;;;5047471;28;20289;-55
2021/07/10 04:42:41;;;;;;;20.25;13.20;;;;;;;;;;5045475;28;20189;-60
2021/07/10 04:45:08;;;;;;;23.23;13.93;;;;;;;;;;5047835;28;20316;-56
2021/07/10 04:47:34;;;;;;;20.50;13.02;;;;;;;;;;5036315;28;20304;-56
2021/07/10 04:49:59;;;;;;;17.42;13.00;;;;;;;;;;5039683;28;20289;-57
2021/07/10 04:52:25;;;;;;;20.77;13.35;;;;;;;;;;5043376;28;20231;-57
2021/07/10 04:54:50;;;;;;;18.52;14.10;;;;;;;;;;5044519;28;20182;-59
2021/07/10 04:57:16;;;;;;;19.25;12.90;;;;;;;;;;5032715;28;20637;-58
2021/07/10 04:59:41;;;;;;;23.63;14.95;;;;;;;;;;5031375;28;20209;-57
2021/07/10 05:02:06;;;;;;;22.88;13.13;;;;;;;;;;5033461;28;20194;-57
2021/07/10 05:04:32;;;;;;;18.52;13.50;;;;;;;;;;5044737;28;20190;-56
2021/07/10 05:06:57;;;;;;;16.80;12.60;;;;;;;;;;5045423;28;20193;-56
2021/07/10 05:09:23;;;;;;;16.77;11.90;;;;;;;;;;5044798;28;20209;-58
2021/07/10 05:11:48;;;;;;;21.80;13.05;;;;;;;;;;5045815;28;20210;-56
2021/07/10 05:14:14;;;;;;;15.88;12.27;;;;;;;;;;5036053;28;20307;-58
2021/07/10 05:16:40;;;;;;;19.45;12.07;;;;;;;;;;5058789;28;20293;-60
2021/07/10 05:19:05;;;;;;;18.23;12.52;;;;;;;;;;5046070;28;20709;-58
2021/07/10 05:21:32;;;;;;;18.70;12.48;;;;;;;;;;5028751;28;20193;-57
2021/07/10 05:23:57;;;;;;;17.45;11.82;;;;;;;;;;5045230;28;20251;-60
2021/07/10 05:26:22;;;;;;;15.88;12.25;;;;;;;;;;5045777;28;20201;-59
2021/07/10 05:28:48;;;;;;;16.63;12.45;;;;;;;;;;5045393;28;20776;-58
2021/07/10 05:31:13;;;;;;;17.17;11.45;;;;;;;;;;5047661;28;20255;-57
2021/07/10 05:33:38;;;;;;;15.25;10.70;;;;;;;;;;5042952;28;20190;-57
2021/07/10 05:36:04;;;;;;;17.75;10.57;;;;;;;;;;5035619;28;20237;-56
2021/07/10 05:38:29;;;;;;;16.38;10.63;;;;;;;;;;5027891;28;20271;-53
2021/07/10 05:40:54;;;;;;;14.10;10.45;;;;;;;;;;5044649;28;20297;-62
2021/07/10 05:43:24;;;;;;;13.32;10.10;;;;;;;;;;5044695;28;20654;-58
2021/07/10 05:45:51;;;;;;;12.07;9.77;;;;;;;;;;5033414;28;20198;-56
2021/07/10 05:48:16;;;;;;;10.55;9.45;;;;;;;;;;5052929;28;20529;-59
2021/07/10 05:50:41;;;;;;;12.55;10.63;;;;;;;;;;5029503;28;20216;-59
2021/07/10 05:53:07;;;;;;;14.77;9.88;;;;;;;;;;5049474;28;20194;-58
2021/07/10 05:55:33;;;;;;;13.55;9.82;;;;;;;;;;5049430;28;20269;-57
2021/07/10 05:57:58;;;;;;;10.98;9.82;;;;;;;;;;5047318;28;20293;-58
2021/07/10 06:00:23;;;;;;;13.85;10.27;;;;;;;;;;5050464;28;20232;-57
2021/07/10 06:02:49;;;;;;;10.63;9.27;;;;;;;;;;5049770;28;20189;-58
2021/07/10 06:05:14;;;;;;;12.45;9.25;;;;;;;;;;5050315;28;20248;-57
2021/07/10 06:07:39;;;;;;;13.75;9.48;;;;;;;;;;5034933;28;20178;-59
2021/07/10 06:10:07;;;;;;;12.80;9.77;;;;;;;;;;5049377;28;20669;-58
2021/07/10 06:12:32;;;;;;;15.13;9.60;;;;;;;;;;5048555;28;20225;-59
2021/07/10 06:14:58;;;;;;;12.20;9.60;;;;;;;;;;5045701;28;20259;-59
2021/07/10 06:17:26;;;;;;;13.02;9.15;;;;;;;;;;5046993;28;20715;-60
2021/07/10 06:19:53;;;;;;;15.60;10.25;;;;;;;;;;5035983;28;20220;-58
2021/07/10 06:22:18;;;;;;;11.40;10.18;;;;;;;;;;5034808;28;20246;-58
2021/07/10 06:24:43;;;;;;;13.30;10.43;;;;;;;;;;5037891;28;20680;-59
2021/07/10 06:27:08;;;;;;;13.57;9.55;;;;;;;;;;5049388;28;20186;-58
2021/07/10 06:29:34;;;;;;;13.88;10.00;;;;;;;;;;5048492;28;20206;-57
2021/07/10 06:31:59;;;;;;;14.18;10.20;;;;;;;;;;5045975;28;20210;-60
2021/07/10 06:34:24;;;;;;;11.85;10.40;;;;;;;;;;5050015;28;20182;-58
2021/07/10 06:36:50;;;;;;;16.20;10.60;;;;;;;;;;5049538;28;20244;-58
2021/07/10 06:39:15;;;;;;;13.80;10.43;;;;;;;;;;5039633;28;20222;-57
2021/07/10 06:41:40;;;;;;;11.95;9.43;;;;;;;;;;5049350;28;20255;-57
2021/07/10 06:44:06;;;;;;;12.73;10.02;;;;;;;;;;5043339;28;20201;-57
2021/07/10 06:46:31;;;;;;;15.73;10.50;;;;;;;;;;5046876;28;20190;-56
2021/07/10 06:48:56;;;;;;;13.82;10.05;;;;;;;;;;5049422;28;20193;-57
2021/07/10 06:51:22;;;;;;;13.23;9.50;;;;;;;;;;5039501;28;20208;-58
2021/07/10 06:53:47;;;;;;;13.55;9.27;;;;;;;;;;5049869;28;20719;-56
2021/07/10 06:56:13;;;;;;;12.02;9.75;;;;;;;;;;5041001;28;20186;-57
2021/07/10 06:58:38;;;;;;;11.10;8.00;;;;;;;;;;5049473;28;20208;-57
2021/07/10 07:01:04;;;;;;;8.30;7.45;;;;;;;;;;5046070;28;20209;-57
2021/07/10 07:03:31;;;;;;;9.65;7.38;;;;;;;;;;5043304;28;20222;-56
2021/07/10 07:05:57;;;;;;;8.52;7.32;;;;;;;;;;5049009;28;20189;-56
2021/07/10 07:08:23;;;;;;;6.88;6.25;;;;;;;;;;5031253;28;20281;-57
2021/07/10 07:10:48;;;;;;;7.60;6.60;;;;;;;;;;5062659;28;20222;-56
2021/07/10 07:13:13;;;;;;;8.95;6.93;;;;;;;;;;5047048;28;20192;-56
2021/07/10 07:15:39;;;;;;;7.75;6.95;;;;;;;;;;5039341;28;20542;-56
2021/07/10 07:18:04;;;;;;;9.93;7.60;;;;;;;;;;5037762;28;20249;-56
2021/07/10 07:20:29;;;;;;;7.78;6.97;;;;;;;;;;5043438;28;20217;-56
2021/07/10 07:22:55;;;;;;;7.55;6.85;;;;;;;;;;5026659;28;20603;-58
2021/07/10 07:25:23;;;;;;;12.07;7.13;;;;;;;;;;5037798;28;20182;-57
2021/07/10 07:27:50;;;;;;;8.57;7.28;;;;;;;;;;5065362;28;20193;-56
2021/07/10 07:30:17;;;;;;;8.65;7.13;;;;;;;;;;5034680;28;20210;-56
2021/07/10 07:32:42;;;;;;;7.60;6.60;;;;;;;;;;5043643;28;20287;-56
2021/07/10 07:35:10;;;;;;;8.93;6.78;;;;;;;;;;5045331;28;20217;-56
2021/07/10 07:37:36;;;;;;;6.82;5.93;;;;;;;;;;5053935;28;20193;-58
2021/07/10 07:40:03;;;;;;;7.75;6.88;;;;;;;;;;5047965;28;20206;-58
2021/07/10 07:42:28;;;;;;;8.48;7.28;;;;;;;;;;5046648;28;20197;-57
2021/07/10 07:44:54;;;;;;;8.23;7.20;;;;;;;;;;5038625;28;20186;-57
2021/07/10 07:47:19;;;;;;;7.88;7.00;;;;;;;;;;5048766;28;20780;-58
2021/07/10 07:49:45;;;;;;;9.50;6.70;;;;;;;;;;5033954;28;20202;-57
2021/07/10 07:52:11;;;;;;;8.30;6.57;;;;;;;;;;5048434;28;20573;-55
2021/07/10 07:54:37;;;;;;;8.25;6.88;;;;;;;;;;5024452;28;20644;-57
2021/07/10 07:57:03;;;;;;;7.28;6.57;;;;;;;;;;5035734;28;20277;-58
2021/07/10 07:59:28;;;;;;;7.03;6.15;;;;;;;;;;5047337;28;20220;-58
2021/07/10 08:01:54;;;;;;;8.93;7.18;;;;;;;;;;5040536;28;20182;-58
2021/07/10 08:04:19;;;;;;;9.50;7.10;;;;;;;;;;5047754;28;20235;-57
2021/07/10 08:06:45;;;;;;;10.10;7.35;;;;;;;;;;5029633;28;20210;-58
2021/07/10 08:09:10;;;;;;;8.40;7.25;;;;;;;;;;5043270;28;20197;-61
2021/07/10 08:11:35;;;;;;;8.32;6.60;;;;;;;;;;5046619;28;20685;-57
2021/07/10 08:14:01;;;;;;;8.70;7.38;;;;;;;;;;5043026;28;20198;-59
2021/07/10 08:16:26;;;;;;;8.23;7.35;;;;;;;;;;5040812;28;20240;-58
2021/07/10 08:18:52;;;;;;;8.40;7.70;;;;;;;;;;5048882;28;20181;-57
2021/07/10 08:21:19;;;;;;;9.25;8.50;;;;;;;;;;5047916;28;20571;-57
2021/07/10 08:23:44;;;;;;;10.25;9.15;;;;;;;;;;5048154;28;20909;-60
2021/07/10 08:26:10;;;;;;;11.32;9.27;;;;;;;;;;5044409;28;20300;-57
2021/07/10 08:28:35;;;;;;;9.50;8.55;;;;;;;;;;5048225;28;20190;-58
2021/07/10 08:31:01;;;;;;;8.80;7.90;;;;;;;;;;5046548;28;20222;-59
2021/07/10 08:33:27;;;;;;;9.27;8.38;;;;;;;;;;5047349;28;20229;-59
2021/07/10 08:35:53;;;;;;;9.10;8.30;;;;;;;;;;5048834;28;20193;-59
2021/07/10 08:38:18;;;;;;;9.18;8.27;;;;;;;;;;5043948;28;20178;-59
2021/07/10 08:40:44;;;;;;;9.30;8.38;;;;;;;;;;5046782;28;20213;-58
2021/07/10 08:43:09;;;;;;;16.23;8.07;;;;;;;;;;5045793;28;20288;-59
2021/07/10 08:45:36;;;;;;;10.13;8.68;;;;;;;;;;5041844;28;20278;-57
2021/07/10 08:48:05;;;;;;;10.05;9.13;;;;;;;;;;5046945;28;20220;-60
2021/07/10 08:50:32;;;;;;;11.32;10.18;;;;;;;;;;5047087;28;20292;-57
2021/07/10 08:52:58;;;;;;;11.77;9.93;;;;;;;;;;5045891;28;20649;-59
2021/07/10 08:55:24;;;;;;;11.65;9.70;;;;;;;;;;5031094;28;20186;-60
2021/07/10 08:57:51;;;;;;;10.82;9.68;;;;;;;;;;5047898;28;20683;-56
2021/07/10 09:00:27;;;;;;;10.70;9.60;;;;;;;;;;5045554;28;20244;-58
2021/07/10 09:02:55;;;;;;;10.70;9.60;;;;;;;;;;5037777;28;20752;-57
2021/07/10 09:05:21;;;;;;;10.10;9.00;;;;;;;;;;5022525;28;20212;-59
2021/07/10 09:08:19;;;;;;;10.02;9.05;;;;;;;;;;5046725;28;20185;-59
2021/07/10 09:10:47;;;;;;;11.73;10.57;;;;;;;;;;5041654;28;20217;-58
2021/07/10 09:13:13;;;;;;;10.98;9.88;;;;;;;;;;5046840;28;20204;-57
2021/07/10 09:15:39;;;;;;;11.32;9.55;;;;;;;;;;5045056;28;20194;-58
2021/07/10 09:18:07;;;;;;;9.77;8.77;;;;;;;;;;5047640;28;20193;-58
2021/07/10 09:20:33;;;;;;;9.52;8.63;;;;;;;;;;5046689;28;20213;-58
2021/07/10 09:22:58;;;;;;;10.10;9.00;;;;;;;;;;5046799;28;20197;-59
2021/07/10 09:25:26;;;;;;;10.07;9.05;;;;;;;;;;5045882;28;20190;-57
2021/07/10 09:27:53;;;;;;;10.75;9.20;;;;;;;;;;5045825;28;20186;-58
2021/07/10 09:30:37;;;;;;;10.10;8.73;;;;;;;;;;5025510;28;20566;-59
2021/07/10 09:33:22;;;;;;;10.13;9.07;;;;;;;;;;5044079;28;20198;-58
2021/07/10 09:36:00;;;;;;;13.55;9.43;;;;;;;;;;5046117;28;20182;-58
2021/07/10 09:38:28;;;;;;;12.75;8.55;;;;;;;;;;5047492;28;20275;-60
2021/07/10 09:40:58;;;;;;;11.15;10.00;;;;;;;;;;5045194;28;20201;-58
2021/07/10 09:43:29;;;;;;;10.90;9.75;;;;;;;;;;5046887;28;20208;-59
2021/07/10 09:45:57;;;;;;;11.48;10.30;;;;;;;;;;5044753;28;20190;-57
2021/07/10 09:48:27;;;;;;;10.05;9.00;;;;;;;;;;5046935;28;20887;-56
2021/07/10 09:51:17;;;;;;;10.48;9.05;;;;;;;;;;5038314;28;20210;-57
2021/07/10 09:53:59;;;;;;;9.88;8.88;;;;;;;;;;5041404;28;20186;-59
2021/07/10 09:56:24;;;;;;;9.50;8.50;;;;;;;;;;5046110;28;20247;-59
2021/07/10 09:58:50;;;;;;;9.63;7.72;;;;;;;;;;5045129;28;20194;-59
2021/07/10 10:01:35;;;;;;;8.80;7.93;;;;;;;;;;5045418;28;20268;-59
2021/07/10 10:04:01;;;;;;;8.00;7.22;;;;;;;;;;5045843;28;20297;-58
2021/07/10 10:06:34;;;;;;;8.70;7.90;;;;;;;;;;5045200;28;20708;-58
2021/07/10 10:09:14;;;;;;;8.18;7.38;;;;;;;;;;5029680;28;20233;-58
2021/07/10 10:12:01;;;;;;;9.27;8.23;;;;;;;;;;5047204;28;20738;-57
2021/07/10 10:14:37;;;;;;;7.80;7.18;;;;;;;;;;5040746;28;20190;-59
2021/07/10 10:17:02;;;;;;;10.65;8.15;;;;;;;;;;5036285;28;20234;-57
2021/07/10 10:19:33;;;;;;;8.27;7.47;;;;;;;;;;5048506;28;20217;-57
2021/07/10 10:22:01;;;;;;;9.20;8.15;;;;;;;;;;5034625;28;20194;-58
2021/07/10 10:24:28;;;;;;;8.98;8.13;;;;;;;;;;5045049;28;20213;-59
2021/07/10 10:26:54;;;;;;;11.20;8.75;;;;;;;;;;5046771;28;20205;-57
2021/07/10 10:29:22;;;;;;;12.32;8.70;;;;;;;;;;5034028;28;20206;-58
2021/07/10 10:31:49;;;;;;;9.20;7.78;;;;;;;;;;5048726;28;20685;-58
2021/07/10 10:34:14;;;;;;;8.15;7.35;;;;;;;;;;5044958;28;20195;-61
2021/07/10 10:36:43;;;;;;;8.60;7.40;;;;;;;;;;5049028;28;20231;-57
2021/07/10 10:39:11;;;;;;;8.32;7.45;;;;;;;;;;5049426;28;20201;-58
2021/07/10 10:41:45;;;;;;;7.82;7.13;;;;;;;;;;5061795;28;20178;-57
2021/07/10 10:44:13;;;;;;;17.98;10.48;;;;;;;;;;5052103;28;20228;-57
2021/07/10 10:46:57;;;;;;;9.82;7.32;;;;;;;;;;5046967;28;20182;-58
2021/07/10 10:49:47;;;;;;;9.35;8.45;;;;;;;;;;5049395;28;20205;-59
2021/07/10 10:52:27;;;;;;;7.65;6.88;;;;;;;;;;5037422;28;20217;-59
2021/07/10 10:54:54;;;;;;;8.10;7.30;;;;;;;;;;5048852;28;20190;-57
2021/07/10 10:57:49;;;;;;;8.82;7.65;;;;;;;;;;5032089;28;20231;-58
2021/07/10 11:00:27;;;;;;;7.65;6.90;;;;;;;;;;5039143;28;20320;-56
2021/07/10 11:02:55;;;;;;;8.00;7.30;;;;;;;;;;5049523;28;20649;-58
2021/07/10 11:05:33;;;;;;;7.55;6.72;;;;;;;;;;5050050;28;20204;-57
2021/07/10 11:08:17;;;;;;;9.70;7.78;;;;;;;;;;5037166;28;20270;-57
2021/07/10 11:10:46;;;;;;;7.80;6.93;;;;;;;;;;5038504;28;20237;-57
2021/07/10 11:13:44;;;;;;;7.78;7.05;;;;;;;;;;5041224;28;20197;-59
2021/07/10 11:16:09;;;;;;;8.52;7.60;;;;;;;;;;5046838;28;20671;-57
2021/07/10 11:18:59;;;;;;;8.52;7.57;;;;;;;;;;5044735;28;20214;-56
2021/07/10 11:21:45;;;;;;;7.97;7.18;;;;;;;;;;5041448;28;20189;-57
2021/07/10 11:24:19;;;;;;;7.78;6.85;;;;;;;;;;5049020;28;20193;-57
2021/07/10 11:26:44;;;;;;;6.97;6.32;;;;;;;;;;5043206;28;20723;-57
2021/07/10 11:29:26;;;;;;;7.77;6.63;;;;;;;;;;5047344;28;20186;-56
2021/07/10 11:31:53;;;;;;;6.68;6.07;;;;;;;;;;5042930;28;20468;-56
2021/07/10 11:34:33;;;;;;;8.07;6.00;;;;;;;;;;5047012;28;20181;-57
2021/07/10 11:37:10;;;;;;;6.75;6.15;;;;;;;;;;5048717;28;20189;-58
2021/07/10 11:39:36;;;;;;;6.65;6.00;;;;;;;;;;5046069;28;20225;-59
2021/07/10 11:42:27;;;;;;;8.10;6.35;;;;;;;;;;5048024;28;20221;-56
2021/07/10 11:44:54;;;;;;;8.65;5.97;;;;;;;;;;5048049;28;20666;-57
2021/07/10 11:47:43;;;;;;;7.18;6.18;;;;;;;;;;5046348;28;20240;-57
2021/07/10 11:50:18;;;;;;;8.68;6.25;;;;;;;;;;5027763;28;20228;-57
2021/07/10 11:53:03;;;;;;;7.10;6.40;;;;;;;;;;5041648;28;20750;-56
2021/07/10 11:55:32;;;;;;;6.60;6.00;;;;;;;;;;5035178;28;20193;-58
2021/07/10 11:58:01;;;;;;;6.72;6.13;;;;;;;;;;5030992;28;20727;-57
2021/07/10 12:00:26;;;;;;;7.03;6.35;;;;;;;;;;5048039;28;20347;-56
2021/07/10 12:02:51;;;;;;;7.93;7.10;;;;;;;;;;5030255;28;20264;-57
2021/07/10 12:05:18;;;;;;;7.75;6.95;;;;;;;;;;5040214;28;20186;-56
2021/07/10 12:07:51;;;;;;;8.55;6.97;;;;;;;;;;5044188;28;20201;-58
2021/07/10 12:10:29;;;;;;;8.05;6.47;;;;;;;;;;5041174;28;20243;-56
2021/07/10 12:13:00;;;;;;;10.07;6.38;;;;;;;;;;5027652;28;20252;-57
2021/07/10 12:15:27;;;;;;;9.10;7.30;;;;;;;;;;5047837;28;20224;-56
2021/07/10 12:17:55;;;;;;;8.23;7.40;;;;;;;;;;5046797;28;20622;-58
2021/07/10 12:20:27;;;;;;;7.30;6.60;;;;;;;;;;5046368;28;20443;-59
2021/07/10 12:23:01;;;;;;;8.02;7.13;;;;;;;;;;5029799;28;20182;-57
2021/07/10 12:25:29;;;;;;;9.40;7.03;;;;;;;;;;5048739;28;20185;-59
2021/07/10 12:28:03;;;;;;;8.38;7.50;;;;;;;;;;5030837;28;20194;-58
2021/07/10 12:30:40;;;;;;;7.38;6.45;;;;;;;;;;5045477;28;20212;-57
2021/07/10 12:33:27;;;;;;;9.80;7.88;;;;;;;;;;5043688;28;20197;-56
2021/07/10 12:36:06;;;;;;;7.00;6.35;;;;;;;;;;5036544;28;20190;-58
2021/07/10 12:38:33;;;;;;;11.00;6.32;;;;;;;;;;5043661;28;20555;-55
2021/07/10 12:41:32;;;;;;;7.78;6.35;;;;;;;;;;5041201;28;20210;-57
2021/07/10 12:44:28;;;;;;;7.35;5.63;;;;;;;;;;5041449;28;20232;-56
2021/07/10 12:47:09;;;;;;;8.38;6.53;;;;;;;;;;5042847;28;20869;-58
2021/07/10 12:49:36;;;;;;;6.35;5.70;;;;;;;;;;5044826;28;20205;-57
2021/07/10 12:52:05;;;;;;;6.60;5.97;;;;;;;;;;5045565;28;20243;-57
2021/07/10 12:54:33;;;;;;;8.15;6.88;;;;;;;;;;5046821;28;20197;-57
2021/07/10 12:57:17;;;;;;;8.50;7.28;;;;;;;;;;5047674;28;20665;-57
2021/07/10 12:59:54;;;;;;;7.25;6.55;;;;;;;;;;5038126;28;20625;-57
2021/07/10 13:02:28;;;;;;;7.00;6.32;;;;;;;;;;5046339;28;20177;-60
2021/07/10 13:04:54;;;;;;;6.90;6.20;;;;;;;;;;5046576;28;20263;-56
2021/07/10 13:07:31;;;;;;;8.38;6.88;;;;;;;;;;5047798;28;20182;-55
2021/07/10 13:09:57;;;;;;;7.85;7.05;;;;;;;;;;5046778;28;20296;-56
2021/07/10 13:12:53;;;;;;;7.18;6.47;;;;;;;;;;5047121;28;20583;-59
2021/07/10 13:15:24;;;;;;;8.30;7.43;;;;;;;;;;5030754;28;20208;-57
2021/07/10 13:18:22;;;;;;;8.25;6.93;;;;;;;;;;5044679;28;20236;-56
2021/07/10 13:21:09;;;;;;;7.65;6.63;;;;;;;;;;5045495;28;20300;-57
2021/07/10 13:23:43;;;;;;;7.40;6.70;;;;;;;;;;5029223;28;20190;-57
2021/07/10 13:26:21;;;;;;;7.65;6.90;;;;;;;;;;5044182;28;20213;-59
2021/07/10 13:28:47;;;;;;;9.77;7.55;;;;;;;;;;5028224;28;20231;-56
2021/07/10 13:31:30;;;;;;;7.85;6.97;;;;;;;;;;5044837;28;20206;-56
2021/07/10 13:34:05;;;;;;;7.65;6.95;;;;;;;;;;5045314;28;20272;-57
2021/07/10 13:36:39;;;;;;;8.02;7.10;;;;;;;;;;5046389;28;20213;-58
2021/07/10 13:39:07;;;;;;;8.70;7.63;;;;;;;;;;5047950;28;20178;-56
2021/07/10 13:41:34;;;;;;;9.52;7.65;;;;;;;;;;5039706;28;20213;-57
2021/07/10 13:44:07;;;;;;;9.45;7.45;;;;;;;;;;5044210;28;20277;-57
2021/07/10 13:46:53;;;;;;;9.05;7.53;;;;;;;;;;5044177;28;20629;-58
2021/07/10 13:49:40;;;;;;;8.55;7.03;;;;;;;;;;5045723;28;20289;-59
2021/07/10 13:52:15;;;;;;;9.48;7.95;;;;;;;;;;5044086;28;20224;-57
2021/07/10 13:54:46;;;;;;;8.95;7.10;;;;;;;;;;5049925;28;20616;-58
2021/07/10 13:57:12;;;;;;;9.07;7.88;;;;;;;;;;5049446;28;20654;-59
2021/07/10 13:59:38;;;;;;;11.18;7.93;;;;;;;;;;5051021;28;20260;-57
2021/07/10 14:02:04;;;;;;;10.40;8.38;;;;;;;;;;5047292;28;20235;-57
2021/07/10 14:04:30;;;;;;;11.25;8.05;;;;;;;;;;5051415;28;20303;-58
2021/07/10 14:06:55;;;;;;;7.93;7.13;;;;;;;;;;5050508;28;20887;-56
2021/07/10 14:09:20;;;;;;;8.07;7.28;;;;;;;;;;5051521;28;20692;-56
2021/07/10 14:11:46;;;;;;;8.48;7.57;;;;;;;;;;5048884;28;20209;-56
2021/07/10 14:14:11;;;;;;;10.10;7.72;;;;;;;;;;5049737;28;20557;-58
2021/07/10 14:16:37;;;;;;;9.20;8.10;;;;;;;;;;5049306;28;20595;-56
2021/07/10 14:19:02;;;;;;;8.32;7.55;;;;;;;;;;5042988;28;20193;-55
2021/07/10 14:21:27;;;;;;;12.75;8.05;;;;;;;;;;5050501;28;20220;-56
2021/07/10 14:23:53;;;;;;;8.90;8.05;;;;;;;;;;5037305;28;20187;-56
2021/07/10 14:26:18;;;;;;;7.85;7.05;;;;;;;;;;5054525;28;20216;-56
2021/07/10 14:28:43;;;;;;;8.57;7.68;;;;;;;;;;5052355;28;20189;-57
2021/07/10 14:31:09;;;;;;;9.02;7.93;;;;;;;;;;5049706;28;20684;-56
2021/07/10 14:33:34;;;;;;;9.98;7.82;;;;;;;;;;5041266;28;20726;-55
2021/07/10 14:35:59;;;;;;;9.10;8.27;;;;;;;;;;5050958;28;20268;-56
2021/07/10 14:38:24;;;;;;;10.00;7.82;;;;;;;;;;5028857;28;20722;-57